Data for 08/30/2014

Time Sea-Level Adjusted Pressure Absolute Pressure Temperature Relative Humidity Dew Point Precipitation   
(mb) (inHg) (mb) (inHg) (C) (F) (%) (C) (F) (mm) (in)
00:05 1017 30.03 846 24.98 16.5 61.6 60 8.8 47.9 0 0
00:10 1017 30.03 846 24.98 16.1 61 58 8 46.4 0 0
00:15 1016 30 846 24.98 16 60.8 63 9 48.1 0 0
00:20 1016 30 845 24.95 15.4 59.7 61 8 46.3 0 0
00:25 1016 30 845 24.95 15.4 59.7 58 7.1 44.9 0 0
00:30 1016 30 845 24.95 16 60.7 59 8 46.4 0 0
00:35 1016 30 845 24.95 15.6 60 60 7.8 46.1 0 0
00:40 1016 30 845 24.95 15.8 60.5 59 8 46.4 0 0
00:45 1016 30 846 24.98 16.8 62.3 48 5.8 42.5 0 0
00:50 1016 30 846 24.98 17 62.7 56 8.2 46.8 0 0
00:55 1016 30 846 24.98 16.1 60.9 54 6.9 44.5 0 0
01:00 1016 30 845 24.95 16 60.8 57 7.7 45.8 0 0
01:05 1016 30 845 24.95 16.2 61.1 53 6.8 44.2 0 0
01:10 1016 30 845 24.95 16.7 62.1 54 7.5 45.4 0 0
01:15 1016 30 845 24.95 16.5 61.8 57 8.2 46.7 0 0
01:20 1016 30 845 24.95 16.5 61.6 57 8.1 46.5 0 0
01:25 1016 30 845 24.95 15.7 60.3 64 9.1 48.3 0 0
01:30 1016 30 845 24.95 15.4 59.8 64 8.7 47.6 0 0
01:35 1016 30 845 24.95 15.3 59.5 60 7.6 45.8 0 0
01:40 1016 30 845 24.95 15.6 60.1 61 8.1 46.7 0 0
01:45 1016 30 845 24.95 15.3 59.5 62 8.1 46.7 0 0
01:50 1016 30 845 24.95 15.3 59.6 56 6.8 44.2 0 0
01:55 1016 30 845 24.95 15.7 60.3 59 7.7 45.9 0 0
02:00 1016 30 845 24.95 15.4 59.7 55 6.5 43.8 0 0
02:05 1016 30 845 24.95 15.8 60.4 61 8.3 46.9 0 0
02:10 1016 30 845 24.95 14.6 58.3 68 8.9 47.9 0 0
02:15 1016 30 845 24.95 13.9 57.1 70 8.7 47.6 0 0
02:20 1016 30 845 24.95 13.5 56.2 75 9.1 48.4 0 0
02:25 1016 30 845 24.95 13.4 56.2 72 8.5 47.3 0 0
02:30 1015 29.97 845 24.95 13.5 56.3 72 8.6 47.4 0 0
02:35 1015 29.97 845 24.95 13.4 56.1 72 8.5 47.4 0 0
02:40 1015 29.97 845 24.95 13.2 55.7 71 8.1 46.6 0 0
02:45 1015 29.97 844 24.92 13.6 56.5 68 8 46.4 0 0
02:50 1015 29.97 844 24.92 13.9 57 69 8.4 47.1 0 0
02:55 1015 29.97 844 24.92 13.7 56.7 69 8.2 46.8 0 0
03:00 1015 29.97 844 24.92 13.7 56.7 69 8.2 46.8 0 0
03:05 1015 29.97 844 24.92 13.4 56.1 70 8.1 46.6 0 0
03:10 1015 29.97 844 24.92 13.2 55.7 72 8.3 47 0 0
03:15 1015 29.97 844 24.92 12.9 55.2 73 8.2 46.7 0 0
03:20 1015 29.97 844 24.92 12.9 55.2 73 8.2 46.7 0 0
03:25 1015 29.97 844 24.92 13.2 55.8 69 7.8 46 0 0
03:30 1015 29.97 844 24.92 13.7 56.6 64 7.2 44.9 0 0
03:35 1015 29.97 844 24.92 14.2 57.6 64 7.6 45.7 0 0
03:40 1015 29.97 844 24.92 13.9 56.9 66 7.7 45.9 0 0
03:45 1015 29.97 844 24.92 13.4 56 71 8.1 46.7 0 0
03:50 1015 29.97 844 24.92 13 55.3 71 7.8 46.1 0 0
03:55 1015 29.97 844 24.92 12.9 55.1 69 7.4 45.3 0 0
04:00 1015 29.97 844 24.92 13.4 56.2 65 6.9 44.5 0 0
04:05 1015 29.97 844 24.92 14.3 57.8 57 6.1 43 0 0
04:10 1015 29.97 844 24.92 15.6 60 56 6.9 44.4 0 0
04:15 1015 29.97 844 24.92 16.2 61.2 56 7.5 45.5 0 0
04:20 1015 29.97 844 24.92 16.2 61.2 54 7.1 44.7 0 0
04:25 1015 29.97 844 24.92 16.6 61.8 53 7.1 44.8 0 0
04:30 1015 29.97 844 24.92 16.7 62 55 7.8 46 0 0
04:35 1015 29.97 844 24.92 16.3 61.4 56 7.6 45.7 0 0
04:40 1015 29.97 844 24.92 16.3 61.3 55 7.4 45.3 0 0
04:45 1015 29.97 844 24.92 16.3 61.3 55 7.4 45.4 0 0
04:50 1015 29.97 844 24.92 16.2 61.2 55 7.4 45.3 0 0
04:55 1016 30 845 24.95 16.2 61.2 58 8.1 46.6 0 0
05:00 1016 30 845 24.95 15.6 60 62 8.3 47 .2 0.008
05:05 1017 30.03 846 24.98 14.9 58.8 66 8.5 47.4 0 0
05:10 1017 30.03 846 24.98 14.4 57.9 70 9 48.3 0 0
05:15 1017 30.03 846 24.98 14.2 57.6 69 8.7 47.7 0 0
05:20 1017 30.03 846 24.98 14.2 57.6 69 8.7 47.7 0 0
05:25 1017 30.03 846 24.98 14.2 57.5 69 8.6 47.4 0 0
05:30 1017 30.03 847 25.01 14.1 57.3 70 8.7 47.7 0 0
05:35 1017 30.03 847 25.01 13.9 57 69 8.3 47 0 0
05:40 1018 30.06 847 25.01 13.9 57 70 8.6 47.4 0 0
05:45 1018 30.06 847 25.01 13.8 56.8 70 8.5 47.2 0 0
05:50 1018 30.06 847 25.01 13.8 56.8 68 8.1 46.5 0 0
05:55 1018 30.06 847 25.01 13.8 56.8 68 8 46.5 0 0
06:00 1018 30.06 847 25.01 13.5 56.3 73 8.9 48 .2 0.008
06:05 1018 30.06 848 25.04 13.2 55.8 74 8.7 47.7 .2 0.008
06:10 1018 30.06 848 25.04 13.1 55.5 77 9.1 48.4 0 0
06:15 1018 30.06 848 25.04 12.8 55 79 9.3 48.8 .2 0.008
06:20 1019 30.09 848 25.04 12.5 54.5 81 9.3 48.7 0 0
06:25 1019 30.09 848 25.04 12.2 53.9 85 9.7 49.5 .4 0.016
06:30 1019 30.09 848 25.04 11.9 53.5 87 9.8 49.6 .2 0.008
06:35 1019 30.09 848 25.04 11.8 53.2 89 10 49.9 .4 0.016
06:40 1019 30.09 848 25.04 11.6 52.9 89 9.9 49.8 .4 0.016
06:45 1018 30.06 848 25.04 11.4 52.6 91 10.1 50.1 .4 0.016
06:50 1019 30.09 848 25.04 11.2 52.2 92 10 50 .4 0.016
06:55 1019 30.09 848 25.04 11 51.8 93 9.9 49.7 0 0
07:00 1019 30.09 848 25.04 10.9 51.7 93 9.8 49.6 0 0
07:05 1019 30.09 848 25.04 11 51.8 91 9.5 49.1 0 0
07:10 1019 30.09 848 25.04 11.2 52.1 91 9.8 49.6 0 0
07:15 1019 30.09 848 25.04 11.2 52.2 91 9.9 49.8 .2 0.008
07:20 1019 30.09 848 25.04 11.2 52.2 92 10 49.9 0 0
07:25 1018 30.06 848 25.04 11.2 52.2 93 10.1 50.2 .4 0.016
07:30 1018 30.06 847 25.01 11.2 52.2 93 10.1 50.2 .2 0.008
07:35 1018 30.06 847 25.01 11.3 52.3 93 10.1 50.2 .2 0.008
07:40 1018 30.06 847 25.01 11.3 52.3 92 10.1 50.1 0 0
07:45 1018 30.06 847 25.01 11.3 52.3 92 10 49.9 0 0
07:50 1018 30.06 847 25.01 11.3 52.3 91 9.9 49.7 0 0
07:55 1018 30.06 847 25.01 11.3 52.3 91 9.9 49.8 0 0
08:00 1018 30.06 847 25.01 11.2 52.2 92 9.9 49.9 0 0
08:05 1018 30.06 847 25.01 11.2 52.2 92 10 50 0 0
08:10 1017 30.03 847 25.01 11.3 52.3 92 10.1 50.1 0 0
08:15 1017 30.03 846 24.98 11.4 52.5 93 10.2 50.4 0 0
08:20 1017 30.03 846 24.98 11.4 52.6 94 10.4 50.8 0 0
08:25 1017 30.03 846 24.98 11.5 52.8 93 10.5 50.9 0 0
08:30 1017 30.03 846 24.98 11.6 52.8 93 10.4 50.8 0 0
08:35 1017 30.03 846 24.98 11.7 53.1 91 10.4 50.6 0 0
08:40 1017 30.03 846 24.98 11.9 53.4 91 10.4 50.8 0 0
08:45 1017 30.03 846 24.98 12 53.6 89 10.3 50.5 0 0
08:50 1017 30.03 846 24.98 12.1 53.8 90 10.5 50.8 0 0
08:55 1017 30.03 846 24.98 12.3 54.1 89 10.6 51 0 0
09:00 1017 30.03 846 24.98 12.6 54.6 88 10.7 51.3 0 0
09:05 1017 30.03 846 24.98 12.6 54.6 89 10.8 51.4 0 0
09:10 1017 30.03 846 24.98 12.7 54.9 86 10.5 50.8 0 0
09:15 1017 30.03 846 24.98 12.8 55 88 10.8 51.4 0 0
09:20 1017 30.03 846 24.98 13.1 55.6 85 10.7 51.2 0 0
09:25 1016 30 846 24.98 13.1 55.6 86 10.9 51.6 0 0
09:30 1016 30 846 24.98 13.2 55.7 82 10.3 50.5 0 0
09:35 1016 30 846 24.98 13.5 56.4 81 10.5 50.8 0 0
09:40 1016 30 845 24.95 13.6 56.5 81 10.4 50.8 0 0
09:45 1016 30 845 24.95 13.6 56.6 82 10.7 51.3 0 0
09:50 1016 30 845 24.95 13.8 56.8 81 10.7 51.2 0 0
09:55 1016 30 845 24.95 14.1 57.4 75 9.9 49.8 0 0
10:00 1016 30 846 24.98 14.2 57.5 79 10.6 51 0 0
10:05 1016 30 846 24.98 14.4 57.8 78 10.6 51 0 0
10:10 1016 30 846 24.98 14.4 57.9 75 10.1 50.1 0 0
10:15 1016 30 846 24.98 14.6 58.2 76 10.4 50.7 0 0
10:20 1016 30 845 24.95 15.1 59.2 70 9.8 49.6 0 0
10:25 1016 30 845 24.95 15.3 59.6 72 10.3 50.6 0 0
10:30 1016 30 845 24.95 15.3 59.5 71 10.1 50.3 0 0
10:35 1016 30 845 24.95 15 59.1 73 10.3 50.6 0 0
10:40 1016 30 845 24.95 15.1 59.1 67 9 48.1 0 0
10:45 1016 30 845 24.95 15.1 59.2 73 10.3 50.5 0 0
10:50 1016 30 846 24.98 15.2 59.3 68 9.5 49.1 0 0
10:55 1016 30 846 24.98 15.3 59.5 68 9.4 48.8 0 0
11:00 1017 30.03 846 24.98 15.3 59.5 69 9.6 49.2 0 0
11:05 1016 30 846 24.98 15.1 59.2 66 8.8 47.9 0 0
11:10 1016 30 845 24.95 15.1 59.1 66 8.7 47.7 0 0
11:15 1016 30 845 24.95 15.2 59.3 68 9.3 48.7 0 0
11:20 1016 30 845 24.95 15.2 59.3 69 9.5 49.1 0 0
11:25 1016 30 845 24.95 15.2 59.3 70 9.8 49.7 0 0
11:30 1016 30 845 24.95 15.2 59.3 69 9.6 49.3 0 0
11:35 1016 30 845 24.95 15.1 59.2 74 10.6 51.1 0 0
11:40 1016 30 845 24.95 15.2 59.3 72 10.2 50.3 0 0
11:45 1016 30 845 24.95 15.1 59.2 67 9.1 48.3 0 0
11:50 1016 30 845 24.95 15.1 59.1 69 9.6 49.2 0 0
11:55 1016 30 845 24.95 15.1 59.1 72 10.2 50.3 0 0
12:00 1016 30 845 24.95 15 58.9 73 10.3 50.5 0 0
12:05 1016 30 845 24.95 15 59 70 9.7 49.4 0 0
12:10 1016 30 845 24.95 15 58.9 73 10.3 50.5 0 0
12:15 1016 30 845 24.95 15 58.9 71 9.8 49.7 0 0
12:20 1016 30 845 24.95 15 59.1 69 9.4 48.8 0 0
12:25 1016 30 845 24.95 15.1 59.2 67 9.2 48.5 0 0
12:30 1016 30 845 24.95 15.1 59.2 68 9.3 48.8 0 0
12:35 1016 30 845 24.95 15.1 59.1 74 10.5 50.8 0 0
12:40 1016 30 845 24.95 15 59 72 10.1 50.1 0 0
12:45 1016 30 845 24.95 14.8 58.7 76 10.8 51.4 0 0
12:50 1016 30 845 24.95 14.7 58.5 77 10.7 51.3 0 0
12:55 1016 30 845 24.95 14.7 58.4 76 10.5 50.9 0 0
13:00 1016 30 845 24.95 14.8 58.6 77 10.7 51.3 0 0
13:05 1016 30 845 24.95 14.9 58.7 77 10.9 51.6 0 0
13:10 1016 30 845 24.95 14.8 58.7 72 9.8 49.7 0 0
13:15 1016 30 845 24.95 14.9 58.8 75 10.5 50.8 0 0
13:20 1016 30 845 24.95 15.1 59.1 71 10 50 0 0
13:25 1016 30 845 24.95 15.3 59.5 71 10 50.1 0 0
13:30 1016 30 845 24.95 15.4 59.7 71 10.3 50.5 0 0
13:35 1016 30 845 24.95 15.5 59.9 69 9.9 49.9 0 0
13:40 1016 30 845 24.95 15.6 60.1 64 8.9 48 0 0
13:45 1016 30 845 24.95 15.8 60.4 61 8.3 47 0 0
13:50 1016 30 845 24.95 15.6 60.2 66 9.4 49 0 0
13:55 1016 30 845 24.95 15.5 59.8 64 8.9 47.9 0 0
14:00 1016 30 845 24.95 15.4 59.6 70 9.9 49.8 0 0
14:05 1016 30 845 24.95 15.1 59.1 69 9.4 48.9 0 0
14:10 1016 30 845 24.95 14.7 58.4 69 9.1 48.3 0 0
14:15 1016 30 845 24.95 14.4 57.9 82 11.4 52.5 0 0
14:20 1016 30 845 24.95 12.8 55 91 11.4 52.5 0 0
14:25 1016 30 845 24.95 12.1 53.7 93 10.9 51.7 0 0
14:30 1016 30 845 24.95 11.9 53.5 94 11 51.8 0 0
14:35 1017 30.03 846 24.98 11.9 53.4 95 11.1 52 .4 0.016
14:40 1016 30 846 24.98 11.7 53 95 10.9 51.5 .6 0.024
14:45 1016 30 845 24.95 11.5 52.7 96 10.9 51.5 0 0
14:50 1016 30 845 24.95 11.5 52.7 93 10.3 50.6 .2 0.008
14:55 1016 30 845 24.95 11.6 52.9 95 10.9 51.6 .2 0.008
15:00 1016 30 845 24.95 11.9 53.3 94 11 51.7 0 0
15:05 1015 29.97 845 24.95 12.5 54.5 91 11 51.8 0 0
15:10 1016 30 845 24.95 13.1 55.5 90 11.4 52.5 0 0
15:15 1016 30 845 24.95 13.5 56.2 90 11.8 53.2 0 0
15:20 1016 30 845 24.95 13.6 56.5 83 10.8 51.5 0 0
15:25 1015 29.97 845 24.95 13.7 56.6 80 10.4 50.6 0 0
15:30 1015 29.97 845 24.95 13.4 56.2 82 10.5 50.8 0 0
15:35 1015 29.97 845 24.95 13.5 56.3 80 10.1 50.1 0 0
15:40 1015 29.97 844 24.92 13.6 56.5 77 9.8 49.6 0 0
15:45 1015 29.97 844 24.92 13.7 56.7 77 9.8 49.6 0 0
15:50 1015 29.97 844 24.92 13.7 56.6 78 10 50 0 0
15:55 1015 29.97 844 24.92 13.6 56.6 78 9.8 49.7 0 0
16:00 1015 29.97 845 24.95 13.7 56.6 80 10.2 50.4 0 0
16:05 1015 29.97 845 24.95 13.8 56.8 78 10 50 0 0
16:10 1016 30 845 24.95 13.8 56.8 79 10.3 50.5 0 0
16:15 1016 30 845 24.95 13.7 56.7 80 10.3 50.6 0 0
16:20 1016 30 845 24.95 13.5 56.4 81 10.3 50.6 0 0
16:25 1016 30 845 24.95 13.3 56 83 10.6 51 0 0
16:30 1016 30 845 24.95 13.1 55.7 85 10.6 51.2 0 0
16:35 1016 30 845 24.95 13 55.5 83 10.2 50.4 0 0
16:40 1016 30 845 24.95 13.1 55.7 82 10.2 50.3 .2 0.008
16:45 1016 30 845 24.95 13.3 55.9 77 9.4 48.9 0 0
16:50 1016 30 845 24.95 13.4 56.1 77 9.5 49.1 0 0
16:55 1016 30 845 24.95 13.3 56 73 8.7 47.7 0 0
17:00 1016 30 845 24.95 13.2 55.8 74 8.8 47.8 0 0
17:05 1016 30 845 24.95 13 55.4 75 8.8 47.8 0 0
17:10 1016 30 845 24.95 12.9 55.3 73 8.2 46.8 0 0
17:15 1016 30 845 24.95 12.8 55 73 8.1 46.6 0 0
17:20 1016 30 846 24.98 12.5 54.5 75 8.2 46.7 0 0
17:25 1017 30.03 846 24.98 12.3 54.1 77 8.3 47 0 0
17:30 1017 30.03 846 24.98 12.1 53.8 79 8.6 47.4 .2 0.008
17:35 1017 30.03 846 24.98 11.8 53.3 86 9.5 49.2 .8 0.031
17:40 1016 30 846 24.98 11.6 52.8 89 9.8 49.6 .2 0.008
17:45 1016 30 846 24.98 11.5 52.6 88 9.6 49.3 0 0
17:50 1016 30 845 24.95 11.3 52.4 89 9.5 49.1 0 0
17:55 1016 30 846 24.98 11.5 52.6 88 9.6 49.2 0 0
18:00 1016 30 846 24.98 11.5 52.7 88 9.5 49.1 0 0
18:05 1017 30.03 846 24.98 11.6 52.8 89 9.9 49.8 0 0
18:10 1016 30 846 24.98 11.6 52.8 90 9.9 49.8 0 0
18:15 1016 30 846 24.98 11.6 53 89 9.9 49.9 0 0
18:20 1017 30.03 846 24.98 11.7 53.1 89 10 50 0 0
18:25 1017 30.03 846 24.98 11.7 53 88 9.8 49.7 0 0
18:30 1017 30.03 846 24.98 11.8 53.2 87 9.8 49.6 0 0
18:35 1017 30.03 846 24.98 11.9 53.4 86 9.6 49.3 0 0
18:40 1017 30.03 846 24.98 12 53.7 87 10 50 0 0
18:45 1017 30.03 846 24.98 12 53.7 90 10.4 50.7 0 0
18:50 1017 30.03 846 24.98 12 53.6 91 10.6 51 0 0
18:55 1017 30.03 846 24.98 12 53.6 92 10.7 51.3 0 0
19:00 1017 30.03 846 24.98 12 53.6 92 10.7 51.3 0 0
19:05 1017 30.03 846 24.98 12 53.6 92 10.7 51.3 0 0
19:10 1017 30.03 846 24.98 11.9 53.5 90 10.4 50.8 0 0
19:15 1017 30.03 846 24.98 11.9 53.4 88 10 50 0 0
19:20 1017 30.03 846 24.98 11.8 53.2 89 10 50.1 0 0
19:25 1017 30.03 846 24.98 11.6 53 90 10.1 50.2 .2 0.008
19:30 1017 30.03 846 24.98 11.5 52.7 91 10.1 50.1 0 0
19:35 1017 30.03 846 24.98 11.4 52.5 92 10.1 50.2 .2 0.008
19:40 1017 30.03 846 24.98 11.3 52.4 91 9.9 49.9 0 0
19:45 1017 30.03 846 24.98 11.3 52.3 91 9.9 49.8 0 0
19:50 1017 30.03 846 24.98 11 51.8 91 9.7 49.4 0 0
19:55 1017 30.03 846 24.98 10.7 51.3 92 9.5 49 0 0
20:00 1016 30 846 24.98 10.7 51.3 91 9.3 48.8 0 0
20:05 1016 30 845 24.95 10.6 51.1 91 9.3 48.7 0 0
20:10 1016 30 846 24.98 10.6 51 91 9.2 48.5 0 0
20:15 1016 30 846 24.98 10.5 50.8 92 9.2 48.5 0 0
20:20 1016 30 846 24.98 10.4 50.8 92 9.2 48.5 0 0
20:25 1016 30 846 24.98 10.5 50.8 91 9 48.3 0 0
20:30 1016 30 846 24.98 10.5 50.8 90 9 48.1 0 0
20:35 1016 30 846 24.98 10.3 50.6 91 8.9 48 0 0
20:40 1016 30 846 24.98 10 49.9 92 8.8 47.8 0 0
20:45 1016 30 846 24.98 9.9 49.8 90 8.4 47.1 0 0
20:50 1017 30.03 846 24.98 10.2 50.4 89 8.5 47.3 0 0
20:55 1017 30.03 846 24.98 10.3 50.6 88 8.4 47.2 0 0
21:00 1017 30.03 846 24.98 10.5 51 87 8.4 47.2 0 0
21:05 1016 30 846 24.98 10.6 51 86 8.4 47.1 0 0
21:10 1016 30 846 24.98 10.5 50.9 86 8.3 46.9 0 0
21:15 1016 30 846 24.98 10.5 50.9 86 8.2 46.7 0 0
21:20 1016 30 846 24.98 10.5 50.8 86 8.3 46.9 0 0
21:25 1016 30 846 24.98 10.4 50.7 86 8.2 46.8 0 0
21:30 1016 30 846 24.98 10.4 50.8 85 8.1 46.6 0 0
21:35 1016 30 846 24.98 10.4 50.7 86 8.2 46.7 0 0
21:40 1016 30 846 24.98 10.2 50.4 88 8.4 47.2 0 0
21:45 1016 30 846 24.98 10.1 50.2 90 8.5 47.3 0 0
21:50 1016 30 846 24.98 10 50.1 90 8.5 47.4 0 0
21:55 1016 30 846 24.98 10.2 50.3 89 8.5 47.3 0 0
22:00 1016 30 846 24.98 10.3 50.5 88 8.4 47.2 0 0
22:05 1016 30 846 24.98 10.3 50.6 87 8.4 47 0 0
22:10 1016 30 846 24.98 10.3 50.5 88 8.4 47.2 0 0
22:15 1017 30.03 846 24.98 10.2 50.4 89 8.5 47.3 0 0
22:20 1017 30.03 846 24.98 10.1 50.1 91 8.7 47.7 0 0
22:25 1017 30.03 846 24.98 9.9 49.7 93 8.7 47.7 0 0
22:30 1017 30.03 846 24.98 9.8 49.6 90 8.2 46.8 0 0
22:35 1017 30.03 846 24.98 10.2 50.3 88 8.2 46.7 0 0
22:40 1017 30.03 846 24.98 10.3 50.6 89 8.6 47.4 0 0
22:45 1017 30.03 846 24.98 10.3 50.5 89 8.6 47.4 0 0
22:50 1017 30.03 846 24.98 10.4 50.7 84 7.7 45.9 0 0
22:55 1016 30 846 24.98 10.5 50.9 84 7.8 46.1 .2 0.008
23:00 1016 30 845 24.95 10.2 50.3 85 7.8 46 0 0
23:05 1016 30 845 24.95 10 49.9 84 7.4 45.3 0 0
23:10 1016 30 845 24.95 10 50 82 7 44.6 0 0
23:15 1016 30 845 24.95 10.3 50.5 78 6.7 44 0 0
23:20 1016 30 845 24.95 10.5 50.9 79 7 44.7 0 0
23:25 1016 30 845 24.95 10.3 50.6 85 7.9 46.2 0 0
23:30 1016 30 845 24.95 10.1 50.2 84 7.5 45.6 0 0
23:35 1016 30 845 24.95 10.2 50.3 80 6.9 44.4 0 0
23:40 1016 30 845 24.95 10.5 51 78 6.9 44.5 0 0
23:45 1016 30 846 24.98 10.1 50.2 84 7.6 45.7 0 0
23:50 1016 30 846 24.98 9.7 49.4 84 7.1 44.8 0 0
23:55 1016 30 845 24.95 9.7 49.4 85 7.3 45.2 0 0
24:00 1016 30 845 24.95 9.5 49.1 86 7.3 45.1 0 0